Impacts METAR Board
IDs:

KSTL - St Louis/Lambert Int, MO, US

Updated at: 0700 UTC 24 Jan 2019
Potential Impact None Slight Moderate High
Time 23/19Z 23/20Z 23/21Z 23/22Z 23/23Z 24/00Z 24/01Z 24/02Z 24/03Z 24/04Z 24/05Z 24/06Z 24/07Z
Temp26 27 26 25 25 25 25 23 21 22 21 21 20
Dewpt19 19 19 18 17 17 16 16 15 16 15 15 15
Altim29.90 29.89 29.90 29.89 29.92 29.94 29.96 29.98 29.99 29.99 29.98 29.97 29.95
VIS10 10 10 10 10 10 10 10 10 10 10 10 10
CIG17 22 18 18 22 22 23 -- -- -- -- -- --
CoverOVCOVCOVCOVCOVCOVCBKNFEWFEWCLRCLRCLRCLR
FltCatMVFRMVFRMVFRMVFRMVFRMVFRMVFRVFRVFRVFRVFRVFRVFR
WX--------------------------
WDir310290290300300290300310290280290290290
WSpd15 14 15 10 9 12 10 9 6 9 7 7 6
WGst-- -- 21 21 20 -- -- -- -- -- -- -- --
Raw hourly METARs
KSTL 231851Z 31015KT 10SM OVC017 M03/M07 A2990 RMK AO2 SLP134 T10331072
KSTL 231951Z 29014KT 10SM OVC022 M03/M07 A2989 RMK AO2 SLP131 T10281072
KSTL 232051Z 29015G21KT 10SM OVC018 M03/M07 A2990 RMK AO2 SLP132 T10331072 55004
KSTL 232151Z 30010G21KT 10SM OVC018 M04/M08 A2989 RMK AO2 SLP130 T10391078
KSTL 232251Z 30009G20KT 10SM OVC022 M04/M08 A2992 RMK AO2 SLP138 T10391083
KSTL 232351Z 29012KT 10SM OVC022 M04/M08 A2994 RMK AO2 SLP150 T10391083 11028 21039 53015
KSTL 240051Z 30010KT 10SM BKN023 M04/M09 A2996 RMK AO2 SLP158 T10391089
KSTL 240151Z 31009KT 10SM FEW024 M05/M09 A2998 RMK AO2 SLP163 T10501089
KSTL 240251Z 29006KT 10SM FEW021 M06/M09 A2999 RMK AO2 SLP167 T10611094 51014
KSTL 240351Z 28009KT 10SM CLR M06/M09 A2999 RMK AO2 SLP168 T10561089
KSTL 240451Z 29007KT 10SM CLR M06/M09 A2998 RMK AO2 SLP167 T10611094
KSTL 240551Z 29007KT 10SM CLR M06/M09 A2997 RMK AO2 SLP164 T10611094 11039 21067 400831067 58004
KSTL 240651Z 29006KT 10SM CLR M07/M09 A2995 RMK AO2 SLP157 T10671094



Page loaded:  07:28 UTC  |   11:28 PM Pacific  |   12:28 AM Mountain  |   01:28 AM Central  |   02:28 AM Eastern

 

ADVISORIES

FORECASTS

FORECASTS

OBSERVATIONS

USER TOOLS

ABOUT US